Time;durP1;ratioP1;P1;durP2;ratioP2;P2;SDS_P1;SDS_P2;PMS_P1;PMS_P2;Temp;Humidity;BMP_temperature;BMP_pressure;BME280_temperature;BME280_humidity;BME280_pressure;Samples;Min_cycle;Max_cycle;Signal;HPM_P1;HPM_P2
2022/08/08 00:00:12;;;;;;;9.13;7.45;;;;;;;;;;4966238;28;20118;-91
2022/08/08 00:02:48;;;;;;;11.45;7.63;;;;;;;;;;4971871;28;20433;-90
2022/08/08 00:05:47;;;;;;;10.73;8.43;;;;;;;15.42;88.68;68489.47;4968349;28;20047;-89
2022/08/08 00:08:13;;;;;;;;;;;;;;;;;;4951568;28;20510;-89
2022/08/08 00:10:46;;;;;;;10.73;8.35;;;;;;;;;;4979483;28;19918;-91
2022/08/08 00:14:05;;;;;;;12.13;7.82;;;;;;;15.31;88.51;68477.53;4977143;28;20290;-90
2022/08/08 00:16:42;;;;;;;11.32;8.10;;;;;;;;;;4844132;29;20043;-91
2022/08/08 00:19:13;;;;;;;10.85;7.82;;;;;;;15.24;89.29;68466.84;4868756;29;20049;-90
2022/08/08 00:21:44;;;;;;;12.70;7.97;;;;;;;;;;4916537;28;20410;-92
2022/08/08 00:24:16;;;;;;;10.57;8.70;;;;;;;15.06;90.39;68447.50;4951578;28;20069;-90
2022/08/08 00:26:46;;;;;;;10.18;7.78;;;;;;;;;;4969261;28;20050;-91
2022/08/08 00:29:11;;;;;;;12.32;8.32;;;;;;;;;;4966337;28;20426;-90
2022/08/08 00:31:41;;;;;;;15.25;8.18;;;;;;;15.03;90.50;68444.06;4956504;28;20181;-91
2022/08/08 00:37:34;;;;;;;12.68;8.25;;;;;;;;;;4952513;28;20085;-90
2022/08/08 00:40:19;;;;;;;11.15;7.95;;;;;;;;;;4909772;28;20121;-90
2022/08/08 00:43:03;;;;;;;12.55;8.65;;;;;;;14.85;92.06;68418.22;4935377;28;20046;-90
2022/08/08 00:45:49;;;;;;;12.93;9.05;;;;;;;14.74;92.95;68411.06;4946942;28;20074;-90
2022/08/08 00:48:40;;;;;;;9.88;7.93;;;;;;;14.76;92.65;68416.00;4947981;28;20038;-90
2022/08/08 00:51:44;;;;;;;13.48;8.90;;;;;;;;;;4954757;28;20038;-90
2022/08/08 00:54:41;;;;;;;12.77;9.50;;;;;;;14.69;93.03;68405.94;4839594;29;20057;-90
2022/08/08 00:57:28;;;;;;;12.55;9.18;;;;;;;14.65;93.52;68401.94;4841601;29;20057;-90
2022/08/08 01:00:16;;;;;;;14.02;10.15;;;;;;;14.58;94.38;68393.97;4931092;28;20048;-92
2022/08/08 01:03:06;;;;;;;14.30;10.18;;;;;;;14.51;95.15;68380.63;4919517;28;20053;-92
2022/08/08 01:05:47;;;;;;;14.48;9.82;;;;;;;14.56;95.22;68391.13;4969494;28;20054;-90
2022/08/08 01:11:09;;;;;;;12.88;10.43;;;;;;;14.56;94.83;68394.38;5002205;28;20046;-78
2022/08/08 01:13:40;;;;;;;11.35;9.45;;;;;;;;;;5010640;28;20456;-77
2022/08/08 01:16:48;;;;;;;11.38;9.63;;;;;;;14.57;95.31;68392.84;5007937;28;20628;-77
2022/08/08 01:19:23;;;;;;;13.23;10.30;;;;;;;14.57;94.58;68394.94;4981085;28;20050;-78
2022/08/08 01:22:17;;;;;;;15.43;9.68;;;;;;;;;;5003584;23;20057;-79
2022/08/08 01:24:52;;;;;;;13.63;10.52;;;;;;;;;;5030495;28;20049;-81
2022/08/08 01:27:32;;;;;;;12.27;10.40;;;;;;;14.49;95.63;68385.81;5034327;28;20132;-80
2022/08/08 01:30:23;;;;;;;15.00;10.23;;;;;;;14.58;94.23;68393.41;5030569;28;20045;-80
2022/08/08 01:33:19;;;;;;;12.77;9.40;;;;;;;14.54;94.45;68383.50;4985472;28;20056;-80
2022/08/08 01:36:04;;;;;;;15.32;10.35;;;;;;;14.55;94.64;68390.56;4990713;28;20043;-80
2022/08/08 01:38:44;;;;;;;12.55;9.45;;;;;;;14.48;95.00;68376.66;5010332;28;20489;-80
2022/08/08 01:41:29;;;;;;;15.65;9.93;;;;;;;14.49;94.65;68383.69;5009673;28;20046;-80
2022/08/08 01:44:15;;;;;;;14.15;10.23;;;;;;;14.47;94.92;68381.41;5006415;28;20455;-80
2022/08/08 01:47:12;;;;;;;14.80;11.05;;;;;;;14.47;94.32;68380.84;5007810;28;20049;-79
2022/08/08 01:49:56;;;;;;;14.40;10.50;;;;;;;14.42;94.90;68375.75;5008981;28;20408;-79
2022/08/08 01:52:36;;;;;;;13.32;10.82;;;;;;;14.37;95.15;68370.63;5006413;28;20042;-80
2022/08/08 01:55:11;;;;;;;14.80;10.10;;;;;;;;;;5008143;28;20044;-80
2022/08/08 01:57:55;;;;;;;13.50;10.18;;;;;;;14.35;94.87;68373.13;5008760;28;20077;-81
2022/08/08 02:00:26;;;;;;;15.05;10.55;;;;;;;14.33;95.26;68365.50;5008897;28;20049;-80
2022/08/08 02:02:51;;;;;;;14.32;11.43;;;;;;;;;;5009823;28;20046;-80
2022/08/08 02:05:59;;;;;;;17.20;11.35;;;;;;;14.29;95.20;68363.63;5010247;28;20053;-80
2022/08/08 02:08:58;;;;;;;16.63;11.35;;;;;;;14.28;95.36;68360.38;4970140;28;20415;-80
2022/08/08 02:11:32;;;;;;;16.40;12.13;;;;;;;14.22;95.59;68356.78;5007038;28;20037;-78
2022/08/08 02:14:06;;;;;;;15.95;11.77;;;;;;;14.17;95.55;68348.41;5007246;28;20092;-78
2022/08/08 02:16:51;;;;;;;13.23;10.25;;;;;;;14.14;95.19;68347.69;5009285;28;20042;-79
2022/08/08 02:19:36;;;;;;;15.10;11.63;;;;;;;14.19;95.66;68350.13;5001396;28;20124;-78
2022/08/08 02:25:12;;;;;;;14.65;10.30;;;;;;;14.15;95.11;68340.78;4976193;28;20095;-79
2022/08/08 02:28:21;;;;;;;15.52;11.15;;;;;;;14.10;95.15;68345.81;5007309;28;20045;-80
2022/08/08 02:31:01;;;;;;;13.50;10.85;;;;;;;14.06;95.61;68335.31;4937522;28;20042;-78
2022/08/08 02:33:32;;;;;;;15.55;11.80;;;;;;;14.04;95.55;68333.63;5007806;28;20556;-79
2022/08/08 02:36:25;;;;;;;14.90;11.23;;;;;;;14.08;95.76;68340.84;5008039;28;20056;-79
2022/08/08 02:39:48;;;;;;;15.82;11.35;;;;;;;14.01;96.22;68335.56;5005958;28;20529;-80
2022/08/08 02:42:13;;;;;;;15.77;11.60;;;;;;;14.02;96.12;68330.78;4965875;28;20129;-79
2022/08/08 02:44:47;;;;;;;18.75;12.30;;;;;;;14.02;95.70;68333.47;4972826;28;20141;-80
2022/08/08 02:47:42;;;;;;;16.27;11.60;;;;;;;14.00;95.55;68324.28;5000416;28;20056;-80
2022/08/08 02:50:40;;;;;;;17.08;11.32;;;;;;;13.89;96.43;68319.78;4991476;28;20037;-80
2022/08/08 02:53:29;;;;;;;15.27;12.13;;;;;;;;;;5010317;28;20415;-78
2022/08/08 02:56:16;;;;;;;16.23;12.30;;;;;;;13.80;96.71;68309.00;4994656;28;20723;-78
2022/08/08 02:59:02;;;;;;;17.95;12.75;;;;;;;13.77;96.63;68304.03;5010570;28;20042;-78
2022/08/08 03:02:11;;;;;;;16.42;12.02;;;;;;;13.71;96.33;68297.22;5009318;28;20046;-78
2022/08/08 03:04:51;;;;;;;16.77;12.55;;;;;;;13.66;96.76;68291.50;5010944;28;20050;-78
2022/08/08 03:07:35;;;;;;;15.63;11.55;;;;;;;;;;4992687;28;20046;-78
2022/08/08 03:10:39;;;;;;;14.68;11.32;;;;;;;13.64;96.13;68291.94;5010380;28;20508;-78
2022/08/08 03:13:08;;;;;;;16.13;12.35;;;;;;;13.59;96.44;68283.00;4937879;28;20038;-78
2022/08/08 03:15:39;;;;;;;18.40;12.98;;;;;;;13.55;97.11;68279.00;5011789;28;20516;-78
2022/08/08 03:18:06;;;;;;;17.98;13.23;;;;;;;;;;5010786;28;20046;-78
2022/08/08 03:20:48;;;;;;;17.50;13.23;;;;;;;13.42;97.75;68264.78;5012826;28;20046;-78
2022/08/08 03:23:13;;;;;;;17.08;13.10;;;;;;;;;;5011952;28;20521;-78
2022/08/08 03:25:40;;;;;;;17.63;13.50;;;;;;;13.36;97.01;68257.41;5011942;28;20049;-78
2022/08/08 03:28:46;;;;;;;17.20;12.68;;;;;;;13.32;98.00;68256.06;5012461;28;20041;-78
2022/08/08 03:33:56;;;;;;;17.73;13.50;;;;;;;13.27;97.80;68247.72;5009543;28;20504;-78
2022/08/08 03:36:23;;;;;;;21.05;13.90;;;;;;;;;;5012886;28;20041;-78
2022/08/08 03:38:50;;;;;;;16.88;13.70;;;;;;;13.27;97.80;68247.72;5012785;28;20049;-78
2022/08/08 03:41:16;;;;;;;16.08;12.93;;;;;;;13.25;98.13;68246.03;5003385;28;20034;-79
2022/08/08 03:43:52;;;;;;;19.20;12.85;;;;;;;13.19;98.08;68233.84;5009632;28;20042;-78
2022/08/08 03:46:18;;;;;;;17.17;13.30;;;;;;;13.21;97.66;68241.47;5010300;28;20045;-79
2022/08/08 03:48:52;;;;;;;17.88;13.57;;;;;;;;;;5011049;28;20104;-78
2022/08/08 03:51:18;;;;;;;20.13;13.73;;;;;;;13.14;97.93;68233.50;4992503;28;20053;-78
2022/08/08 03:53:43;;;;;;;17.13;12.65;;;;;;;13.09;98.35;68228.38;5008336;28;20042;-78
2022/08/08 03:56:08;;;;;;;20.75;13.52;;;;;;;13.06;98.38;68224.97;5007098;28;20041;-78
2022/08/08 03:58:34;;;;;;;26.17;16.92;;;;;;;13.07;97.98;68226.09;5009676;28;20045;-78
2022/08/08 04:00:59;;;;;;;27.30;17.38;;;;;;;13.14;97.82;68233.50;5005627;28;20069;-77
2022/08/08 04:03:34;;;;;;;20.95;14.80;;;;;;;13.15;98.11;68236.72;5008450;28;20068;-78
2022/08/08 04:06:05;;;;;;;18.23;14.30;;;;;;;13.14;98.74;68232.91;5010399;28;20034;-78
2022/08/08 04:08:30;;;;;;;24.45;15.35;;;;;;;13.05;98.27;68223.81;5009756;28;20038;-78
2022/08/08 04:10:55;;;;;;;18.88;14.27;;;;;;;13.01;98.37;68218.72;5008164;28;20034;-78
2022/08/08 04:13:21;;;;;;;25.95;15.18;;;;;;;12.95;98.75;68212.47;5010324;28;20068;-80
2022/08/08 04:15:46;;;;;;;24.98;14.77;;;;;;;;;;5011064;28;20045;-81
2022/08/08 04:18:11;;;;;;;18.85;13.95;;;;;;;;;;4993219;28;20049;-78
2022/08/08 04:20:37;;;;;;;19.17;14.68;;;;;;;13.08;98.68;68227.22;5008316;28;20101;-78
2022/08/08 04:23:03;;;;;;;22.10;13.75;;;;;;;13.00;98.38;68217.56;5007976;28;20063;-78
2022/08/08 04:25:29;;;;;;;20.30;13.90;;;;;;;13.02;98.23;68214.50;5010815;28;20046;-78
2022/08/08 04:27:55;;;;;;;18.40;13.05;;;;;;;13.00;98.37;68217.56;5008651;28;20038;-78
2022/08/08 04:30:20;;;;;;;20.75;13.88;;;;;;;;;;5006553;28;20052;-78
2022/08/08 04:32:46;;;;;;;20.20;13.63;;;;;;;13.03;99.57;68223.66;5008522;28;20121;-78
2022/08/08 04:35:12;;;;;;;18.35;13.02;;;;;;;13.06;98.30;68224.38;5008246;28;20048;-78
2022/08/08 04:37:37;;;;;;;17.80;13.25;;;;;;;13.10;98.27;68234.28;5009516;28;20054;-79
2022/08/08 04:40:03;;;;;;;19.17;13.38;;;;;;;13.11;98.53;68230.06;5010504;28;20041;-78
2022/08/08 04:42:32;;;;;;;17.67;12.43;;;;;;;;;;5010348;28;20045;-78
2022/08/08 04:44:58;;;;;;;19.17;14.25;;;;;;;13.15;99.22;68234.63;5010757;28;20048;-79
2022/08/08 04:47:24;;;;;;;18.50;13.52;;;;;;;13.07;99.56;68220.19;5009812;28;20061;-78
2022/08/08 04:49:49;;;;;;;18.88;14.68;;;;;;;13.25;98.64;68248.69;5010548;28;20042;-79
2022/08/08 04:52:14;;;;;;;23.20;14.55;;;;;;;;;;5006723;28;20050;-79
2022/08/08 04:54:40;;;;;;;17.85;13.75;;;;;;;13.28;98.25;68248.88;5010126;28;20409;-79
2022/08/08 04:57:05;;;;;;;19.52;14.55;;;;;;;;;;5011136;28;20053;-79
2022/08/08 04:59:31;;;;;;;16.42;13.20;;;;;;;13.36;98.66;68257.41;5009255;28;20087;-78
2022/08/08 05:01:56;;;;;;;18.20;13.43;;;;;;;13.40;97.91;68261.94;5004373;28;20054;-78
2022/08/08 05:04:22;;;;;;;19.38;13.93;;;;;;;13.51;97.53;68274.47;4989852;28;20034;-78
2022/08/08 05:06:47;;;;;;;19.13;14.00;;;;;;;13.60;97.53;68287.38;5005926;28;20578;-78
2022/08/08 05:09:13;;;;;;;20.73;14.88;;;;;;;13.64;97.18;68289.25;5008227;28;20044;-78
2022/08/08 05:11:38;;;;;;;21.40;16.02;;;;;;;13.74;96.89;68303.28;5006713;28;20092;-78
2022/08/08 05:14:03;;;;;;;18.00;14.70;;;;;;;13.73;97.42;68307.50;4993737;28;20503;-79
2022/08/08 05:16:30;;;;;;;20.00;15.90;;;;;;;13.71;98.13;68296.66;4990438;28;20049;-78
2022/08/08 05:18:55;;;;;;;21.17;15.98;;;;;;;13.66;99.88;68294.19;5007332;28;20050;-79
2022/08/08 05:21:21;;;;;;;20.75;15.82;;;;;;;;;;4994609;28;20034;-79
2022/08/08 05:23:46;;;;;;;18.23;15.45;;;;;;;;;;5007766;28;20045;-79
2022/08/08 05:26:11;;;;;;;18.48;15.05;;;;;;;13.72;99.93;68298.34;5009213;28;20044;-79
2022/08/08 05:28:37;;;;;;;19.33;14.98;;;;;;;;;;4993808;28;20065;-79
2022/08/08 05:31:02;;;;;;;17.70;14.57;;;;;;;13.88;99.40;68310.63;5011285;28;20067;-81
2022/08/08 05:33:28;;;;;;;20.17;13.80;;;;;;;;;;5004189;28;20549;-80
2022/08/08 05:35:53;;;;;;;18.33;13.63;;;;;;;14.01;98.15;68330.19;5010991;28;20060;-80
2022/08/08 05:38:20;;;;;;;17.13;13.43;;;;;;;;;;5009496;28;20104;-81
2022/08/08 05:40:47;;;;;;;15.75;12.07;;;;;;;;;;5005270;28;20046;-81
2022/08/08 05:43:21;;;;;;;19.02;13.07;;;;;;;14.03;99.03;68335.16;5001451;28;20045;-80
2022/08/08 05:45:47;;;;;;;18.52;12.43;;;;;;;14.14;98.46;68344.44;4983215;28;20045;-80
2022/08/08 05:48:13;;;;;;;17.40;12.40;;;;;;;14.25;97.94;68356.41;5008489;28;20033;-80
2022/08/08 05:50:40;;;;;;;15.88;13.55;;;;;;;14.28;98.60;68359.81;5006640;28;20132;-79
2022/08/08 05:53:06;;;;;;;14.57;11.75;;;;;;;14.36;97.67;68369.47;5007360;28;20076;-80
2022/08/08 05:55:33;;;;;;;17.42;12.50;;;;;;;;;;5006380;28;20621;-80
2022/08/08 05:57:59;;;;;;;16.85;14.02;;;;;;;14.39;98.92;68372.91;5011630;28;20112;-80
2022/08/08 06:00:30;;;;;;;17.50;12.77;;;;;;;14.47;98.68;68384.09;5008963;28;20069;-80
2022/08/08 06:03:11;;;;;;;15.45;11.10;;;;;;;14.60;97.38;68396.25;5012416;28;20084;-81
2022/08/08 06:05:44;;;;;;;13.90;12.05;;;;;;;;;;5009844;28;20045;-80
2022/08/08 06:08:13;;;;;;;15.27;11.82;;;;;;;14.80;96.11;68420.56;5009618;28;20049;-79
2022/08/08 06:10:38;;;;;;;14.38;10.98;;;;;;;;;;5006266;28;20537;-81
2022/08/08 06:13:05;;;;;;;16.10;11.95;;;;;;;;;;5010422;28;20046;-80
2022/08/08 06:15:31;;;;;;;15.60;12.00;;;;;;;;;;4994621;28;20084;-82
2022/08/08 06:17:57;;;;;;;14.95;11.45;;;;;;;;;;5011433;28;20061;-82
2022/08/08 06:20:23;;;;;;;13.82;11.63;;;;;;;;;;5012315;28;20098;-82
2022/08/08 06:22:48;;;;;;;15.68;11.93;;;;;;;15.33;93.60;68477.09;5012174;28;20112;-82
2022/08/08 06:25:13;;;;;;;17.30;13.20;;;;;;;;;;5014480;28;20038;-83
2022/08/08 06:27:41;;;;;;;14.48;12.60;;;;;;;;;;5013857;28;20195;-82
2022/08/08 06:30:08;;;;;;;16.48;12.00;;;;;;;;;;5013314;28;20038;-83
2022/08/08 06:32:40;;;;;;;17.38;12.30;;;;;;;15.64;93.34;68505.91;5012594;28;20041;-82
2022/08/08 06:35:10;;;;;;;16.20;11.88;;;;;;;15.76;92.46;68520.19;5013016;28;20046;-82
2022/08/08 06:37:42;;;;;;;16.50;13.25;;;;;;;15.86;91.83;68536.38;5013981;28;20052;-82
2022/08/08 06:40:10;;;;;;;15.48;12.68;;;;;;;15.86;91.84;68527.75;5003091;28;20060;-83
2022/08/08 06:42:35;;;;;;;16.77;12.18;;;;;;;;;;5012398;28;20096;-83
2022/08/08 06:45:05;;;;;;;15.35;12.70;;;;;;;;;;5014109;28;20046;-82
2022/08/08 06:47:30;;;;;;;18.23;13.52;;;;;;;;;;5020477;28;20038;-81
2022/08/08 06:49:57;;;;;;;17.33;12.55;;;;;;;16.29;90.84;68578.31;5027487;28;20076;-81
2022/08/08 06:52:23;;;;;;;14.82;11.43;;;;;;;16.40;88.49;68596.81;5027844;28;20040;-81
2022/08/08 06:54:48;;;;;;;15.88;11.38;;;;;;;16.46;88.68;68603.63;5027764;28;20061;-80
2022/08/08 06:57:14;;;;;;;17.75;11.70;;;;;;;16.57;88.46;68615.03;5028886;28;20065;-80
2022/08/08 06:59:39;;;;;;;14.05;11.65;;;;;;;16.62;87.71;68615.94;5028341;28;20049;-81
2022/08/08 07:02:05;;;;;;;15.88;11.02;;;;;;;;;;5027654;28;20061;-81
2022/08/08 07:04:56;;;;;;;16.73;12.13;;;;;;;16.85;87.98;68646.41;5027778;28;20081;-80
2022/08/08 07:07:35;;;;;;;16.85;13.10;;;;;;;16.86;87.77;68637.38;5026118;28;20065;-81
2022/08/08 07:10:05;;;;;;;15.80;12.00;;;;;;;16.97;87.11;68659.53;5024486;28;20072;-80
2022/08/08 07:12:42;;;;;;;16.63;11.88;;;;;;;17.06;86.95;68669.78;5027847;28;20076;-80
2022/08/08 07:15:10;;;;;;;14.30;10.68;;;;;;;17.11;86.30;68670.13;5026110;28;20048;-80
2022/08/08 07:17:46;;;;;;;15.00;10.07;;;;;;;;;;5027156;28;20597;-80
2022/08/08 07:20:18;;;;;;;15.95;10.18;;;;;;;17.37;86.27;68699.22;5028557;28;20042;-80
2022/08/08 07:23:01;;;;;;;11.80;9.52;;;;;;;17.45;85.01;68713.16;5050260;22;20519;-78
2022/08/08 07:25:27;;;;;;;11.82;9.13;;;;;;;17.51;84.92;68720.56;5029927;28;20071;-77
2022/08/08 07:28:05;;;;;;;12.00;8.43;;;;;;;17.58;84.98;68722.63;5027796;28;20095;-76
2022/08/08 07:30:31;;;;;;;9.60;7.82;;;;;;;;;;5026793;28;20044;-78
2022/08/08 07:32:56;;;;;;;10.32;7.95;;;;;;;;;;5024064;28;20132;-77
2022/08/08 07:35:24;;;;;;;9.88;6.68;;;;;;;17.89;82.92;68754.16;5015035;28;20046;-79
2022/08/08 07:37:50;;;;;;;13.15;7.10;;;;;;;;;;5008996;28;20111;-79
2022/08/08 07:40:16;;;;;;;9.10;6.70;;;;;;;18.17;81.94;68793.63;5018952;28;20041;-78
2022/08/08 07:42:43;;;;;;;8.73;5.90;;;;;;;18.19;80.75;68790.53;5014374;28;20112;-77
2022/08/08 07:45:09;;;;;;;11.45;5.70;;;;;;;18.27;81.06;68799.69;5021581;28;20056;-79
2022/08/08 07:47:35;;;;;;;8.25;5.90;;;;;;;18.34;78.93;68812.47;5013539;28;20133;-79
2022/08/08 07:50:00;;;;;;;9.13;5.65;;;;;;;;;;5007935;28;20134;-78
2022/08/08 07:52:26;;;;;;;6.85;5.00;;;;;;;;;;5013806;28;20045;-78
2022/08/08 07:55:06;;;;;;;9.25;5.25;;;;;;;18.46;79.42;68820.78;5012939;28;20661;-77
2022/08/08 07:57:40;;;;;;;8.48;5.50;;;;;;;;;;5018481;28;20507;-78
2022/08/08 08:00:14;;;;;;;7.93;4.75;;;;;;;18.65;77.91;68847.31;5009827;28;20132;-79
2022/08/08 08:02:53;;;;;;;9.32;5.07;;;;;;;18.66;77.74;68843.06;5014720;28;20043;-78
2022/08/08 08:05:27;;;;;;;7.63;4.28;;;;;;;18.75;76.31;68858.19;5025577;28;20056;-78
2022/08/08 08:08:02;;;;;;;7.20;4.47;;;;;;;;;;5007262;28;20628;-77
2022/08/08 08:10:29;;;;;;;5.85;3.90;;;;;;;18.85;76.02;68864.78;5005872;28;20054;-78
2022/08/08 08:13:19;;;;;;;6.03;4.07;;;;;;;;;;5012095;28;20069;-80
2022/08/08 08:15:49;;;;;;;6.53;4.47;;;;;;;18.97;73.76;68883.31;4990841;28;20090;-78
2022/08/08 08:18:17;;;;;;;8.60;4.00;;;;;;;18.99;75.72;68879.63;5018523;28;20037;-78
2022/08/08 08:20:42;;;;;;;7.80;4.30;;;;;;;;;;5005933;28;21862;-76
2022/08/08 08:23:08;;;;;;;6.40;3.60;;;;;;;19.42;74.93;68933.59;5008533;28;20049;-79
2022/08/08 08:25:33;;;;;;;6.90;3.58;;;;;;;;;;5005670;28;20406;-79
2022/08/08 08:27:58;;;;;;;6.67;3.90;;;;;;;19.48;73.08;68935.03;5008218;28;20050;-78
2022/08/08 08:30:26;;;;;;;7.32;3.50;;;;;;;19.47;73.27;68939.28;5010464;28;20357;-78
2022/08/08 08:32:51;;;;;;;5.93;3.60;;;;;;;;;;5011691;28;20052;-77
2022/08/08 08:35:18;;;;;;;6.72;3.83;;;;;;;19.63;71.65;68951.59;5022660;28;20049;-78
2022/08/08 08:37:44;;;;;;;8.43;3.80;;;;;;;19.65;71.56;68953.91;5013118;28;20120;-78
2022/08/08 08:40:12;;;;;;;7.13;3.88;;;;;;;19.59;71.81;68944.91;5007392;28;20133;-78
2022/08/08 08:42:39;;;;;;;6.77;3.73;;;;;;;19.65;72.41;68953.31;5003973;28;20065;-78
2022/08/08 08:45:06;;;;;;;4.30;3.33;;;;;;;19.90;70.83;68986.75;5011034;28;20093;-78
2022/08/08 08:47:32;;;;;;;5.38;3.47;;;;;;;;;;4992503;28;20133;-80
2022/08/08 08:49:57;;;;;;;5.55;3.08;;;;;;;19.90;70.69;68981.91;5006160;28;20124;-77
2022/08/08 08:52:23;;;;;;;5.50;2.80;;;;;;;19.75;69.47;68964.78;5023038;28;20052;-78
2022/08/08 08:54:49;;;;;;;6.90;3.28;;;;;;;;;;4990003;28;20069;-78
2022/08/08 08:57:15;;;;;;;4.97;2.92;;;;;;;20.10;69.59;69004.19;5007155;28;20041;-78
2022/08/08 08:59:43;;;;;;;4.35;2.80;;;;;;;20.29;69.87;69030.78;4987857;28;20050;-79
2022/08/08 09:02:17;;;;;;;4.28;3.00;;;;;;;20.46;67.94;69042.09;5008935;28;20045;-78
2022/08/08 09:04:46;;;;;;;7.72;2.88;;;;;;;20.49;68.05;69045.53;5012093;28;20034;-78
2022/08/08 09:07:17;;;;;;;6.30;2.80;;;;;;;20.58;67.30;69057.41;5010957;28;20034;-79
2022/08/08 09:09:47;;;;;;;7.35;3.47;;;;;;;20.44;66.44;69041.94;5005674;28;20053;-78
2022/08/08 09:12:16;;;;;;;4.82;3.00;;;;;;;20.57;67.13;69056.25;5006513;28;20042;-76
2022/08/08 09:14:43;;;;;;;5.60;3.58;;;;;;;20.33;66.63;69034.75;5012646;28;20037;-77
2022/08/08 09:17:10;;;;;;;7.78;3.70;;;;;;;20.14;65.67;69008.19;5010403;28;20056;-79
2022/08/08 09:19:36;;;;;;;5.70;2.97;;;;;;;20.23;67.14;69018.50;5007153;28;20058;-79
2022/08/08 09:22:05;;;;;;;6.28;3.45;;;;;;;20.47;67.71;69045.94;5015039;28;20061;-78
2022/08/08 09:24:32;;;;;;;4.70;2.53;;;;;;;20.61;65.67;69058.13;5005538;28;20038;-78
2022/08/08 09:27:07;;;;;;;6.47;2.65;;;;;;;20.47;65.05;69045.94;5006879;28;20045;-78
2022/08/08 09:29:43;;;;;;;5.90;2.85;;;;;;;20.62;65.24;69062.53;5017108;28;20033;-80
2022/08/08 09:32:12;;;;;;;4.38;2.53;;;;;;;;;;5022155;28;20124;-79
2022/08/08 09:34:38;;;;;;;5.20;2.97;;;;;;;;;;5018679;28;20038;-77
2022/08/08 09:37:09;;;;;;;4.35;2.67;;;;;;;20.91;63.53;69092.41;5018971;28;20392;-78
2022/08/08 09:39:41;;;;;;;4.97;2.90;;;;;;;;;;5021679;28;20042;-79
2022/08/08 09:42:12;;;;;;;5.90;3.03;;;;;;;21.24;62.57;69129.03;5015803;28;20468;-79
2022/08/08 09:44:50;;;;;;;5.38;2.97;;;;;;;21.13;60.96;69125.16;5013939;28;20044;-78
2022/08/08 09:47:18;;;;;;;6.82;2.90;;;;;;;;;;5014549;28;20132;-79
2022/08/08 09:49:45;;;;;;;4.35;2.55;;;;;;;21.27;63.25;69131.91;5017525;28;20042;-78
2022/08/08 09:52:15;;;;;;;5.45;2.47;;;;;;;21.34;61.13;69143.19;5008786;28;20045;-78
2022/08/08 09:54:42;;;;;;;5.18;2.60;;;;;;;21.43;60.44;69152.94;5012397;28;20041;-78
2022/08/08 09:57:10;;;;;;;4.13;2.80;;;;;;;21.16;60.59;69123.16;5015627;28;20088;-79
2022/08/08 09:59:39;;;;;;;6.03;2.80;;;;;;;20.92;59.94;69095.72;5019405;28;20041;-79
2022/08/08 10:02:05;;;;;;;3.88;2.40;;;;;;;20.86;61.81;69088.84;5015165;28;20132;-77
2022/08/08 10:04:34;;;;;;;4.13;2.65;;;;;;;21.00;61.05;69104.84;5009506;28;20479;-78
2022/08/08 10:07:01;;;;;;;5.00;2.50;;;;;;;21.23;60.31;69127.88;5014340;28;20387;-78
2022/08/08 10:09:32;;;;;;;4.05;2.25;;;;;;;21.39;60.48;69145.66;5018755;28;20506;-78
2022/08/08 10:11:58;;;;;;;4.57;2.55;;;;;;;;;;5012500;28;20096;-76
2022/08/08 10:14:31;;;;;;;3.05;2.10;;;;;;;21.25;59.89;69129.59;5023004;28;20542;-78
2022/08/08 10:16:57;;;;;;;4.85;2.50;;;;;;;21.14;60.03;69117.59;5007445;28;20129;-77
2022/08/08 10:19:33;;;;;;;4.97;2.55;;;;;;;21.10;59.84;69110.31;5028736;28;20144;-79
2022/08/08 10:22:00;;;;;;;6.20;2.22;;;;;;;21.04;59.81;69106.16;4993707;28;20052;-79
2022/08/08 10:24:25;;;;;;;3.85;2.00;;;;;;;;;;5020575;28;20034;-79
2022/08/08 10:26:58;;;;;;;3.20;1.70;;;;;;;;;;5009957;28;20472;-78
2022/08/08 10:29:58;;;;;;;4.70;1.67;;;;;;;21.91;56.41;69203.44;5020403;28;20049;-77
2022/08/08 10:32:34;;;;;;;4.38;2.10;;;;;;;21.90;56.24;69205.03;5027832;28;20523;-78
2022/08/08 10:35:01;;;;;;;2.92;2.00;;;;;;;22.08;56.58;69225.63;5002128;28;20053;-78
2022/08/08 10:37:28;;;;;;;4.68;2.55;;;;;;;22.34;56.42;69252.13;4995282;28;20034;-76
2022/08/08 10:39:54;;;;;;;4.40;2.63;;;;;;;;;;5033307;28;20332;-76
2022/08/08 10:42:22;;;;;;;4.13;2.30;;;;;;;22.40;57.29;69259.00;5027532;28;20050;-77
2022/08/08 10:44:47;;;;;;;5.82;2.28;;;;;;;;;;5019021;28;20034;-79
2022/08/08 10:47:18;;;;;;;3.67;2.00;;;;;;;22.17;55.28;69235.34;5017002;28;20094;-78
2022/08/08 10:50:10;;;;;;;3.83;2.40;;;;;;;21.85;56.08;69200.44;5013103;28;20044;-79
2022/08/08 10:52:37;;;;;;;6.10;2.20;;;;;;;21.79;56.09;69193.00;5012204;28;20045;-76
2022/08/08 10:55:07;;;;;;;4.97;2.15;;;;;;;;;;5009054;28;20064;-78
2022/08/08 10:57:40;;;;;;;4.75;2.30;;;;;;;21.89;57.24;69201.72;5018647;28;20042;-78
2022/08/08 11:00:09;;;;;;;3.40;1.95;;;;;;;22.22;55.85;69241.66;5000292;28;20042;-77
2022/08/08 11:02:35;;;;;;;;;;;;;;;22.18;55.62;69236.50;5008686;28;20034;-78
2022/08/08 11:05:04;;;;;;;3.58;2.15;;;;;;;22.11;54.28;69223.06;4993550;28;20336;-79
2022/08/08 11:07:35;;;;;;;4.63;1.88;;;;;;;22.11;54.73;69229.03;5019165;28;20048;-78
2022/08/08 11:10:03;;;;;;;3.67;2.08;;;;;;;;;;5017975;28;20121;-79
2022/08/08 11:12:28;;;;;;;5.25;2.28;;;;;;;22.51;55.13;69274.28;5023208;28;20095;-79
2022/08/08 11:14:55;;;;;;;3.75;2.17;;;;;;;;;;5011869;28;20468;-77
2022/08/08 11:17:25;;;;;;;4.47;2.25;;;;;;;22.64;54.41;69288.63;5015494;28;20365;-78
2022/08/08 11:19:52;;;;;;;6.03;2.53;;;;;;;22.77;54.56;69302.38;4996359;28;20052;-77
2022/08/08 11:22:23;;;;;;;3.03;1.67;;;;;;;22.80;53.32;69303.09;5010815;28;20056;-78
2022/08/08 11:24:49;;;;;;;4.07;2.13;;;;;;;22.78;53.45;69304.06;4993638;28;20053;-78
2022/08/08 11:27:16;;;;;;;6.97;2.13;;;;;;;22.97;54.63;69331.28;5014960;28;20045;-77
2022/08/08 11:29:45;;;;;;;4.32;2.03;;;;;;;23.40;53.16;69373.41;5023273;28;20093;-76
2022/08/08 11:32:12;;;;;;;3.67;2.20;;;;;;;23.32;52.41;69364.25;5005111;28;20073;-77
2022/08/08 11:34:41;;;;;;;4.00;2.10;;;;;;;23.44;52.02;69375.28;5008708;28;20091;-77
2022/08/08 11:37:07;;;;;;;4.90;2.35;;;;;;;23.22;51.29;69352.78;5022386;28;20468;-77
2022/08/08 11:39:34;;;;;;;3.95;1.90;;;;;;;22.86;51.35;69307.25;5006438;28;20129;-78
2022/08/08 11:42:00;;;;;;;2.97;2.07;;;;;;;;;;5004728;28;20034;-77
2022/08/08 11:44:27;;;;;;;3.58;1.80;;;;;;;22.81;53.18;69306.94;5011737;28;20285;-77
2022/08/08 11:46:56;;;;;;;3.28;1.80;;;;;;;;;;4999376;28;20038;-77
2022/08/08 11:49:23;;;;;;;5.68;2.10;;;;;;;22.67;52.22;69291.47;5014918;28;20058;-77
2022/08/08 11:51:51;;;;;;;3.00;1.65;;;;;;;23.28;50.95;69354.81;5006833;28;20042;-76
2022/08/08 11:54:17;;;;;;;3.20;1.27;;;;;;;23.38;50.05;69368.97;5004470;28;20041;-77
2022/08/08 11:56:42;;;;;;;3.30;1.60;;;;;;;23.43;50.49;69376.84;5017925;28;20033;-76
2022/08/08 11:59:09;;;;;;;6.55;1.80;;;;;;;23.45;49.47;69378.56;5005521;28;20382;-77
2022/08/08 12:01:35;;;;;;;3.38;1.63;;;;;;;23.34;48.88;69363.81;5004329;28;20048;-77
2022/08/08 12:04:02;;;;;;;3.80;1.58;;;;;;;23.03;49.66;69331.59;4988480;28;20026;-76
2022/08/08 12:06:28;;;;;;;7.38;1.80;;;;;;;23.17;50.60;69348.19;5013290;28;20041;-77
2022/08/08 12:09:04;;;;;;;3.17;1.42;;;;;;;23.57;50.28;69387.47;5004239;28;20033;-77
2022/08/08 12:11:37;;;;;;;5.20;1.40;;;;;;;23.77;49.78;69414.69;5003209;28;20180;-77
2022/08/08 12:14:03;;;;;;;2.67;1.30;;;;;;;24.01;47.11;69436.75;5004871;28;20068;-76
2022/08/08 12:16:29;;;;;;;2.78;1.70;;;;;;;23.72;48.25;69401.38;5004525;28;20061;-77
2022/08/08 12:18:55;;;;;;;4.53;1.60;;;;;;;23.40;48.68;69373.97;5013290;28;20128;-77
2022/08/08 12:21:21;;;;;;;3.15;1.40;;;;;;;;;;5012189;28;20030;-77
2022/08/08 12:23:47;;;;;;;5.78;1.58;;;;;;;23.18;50.24;69346.63;5004102;28;20054;-77
2022/08/08 12:26:15;;;;;;;12.50;1.80;;;;;;;23.04;50.86;69330.59;5003430;28;20034;-76
2022/08/08 12:28:51;;;;;;;3.43;1.43;;;;;;;23.35;49.32;69364.97;5003725;28;20037;-77
2022/08/08 12:31:17;;;;;;;3.25;1.10;;;;;;;23.30;49.48;69353.78;5004009;28;20308;-77
2022/08/08 12:33:51;;;;;;;4.47;1.70;;;;;;;23.05;51.74;69334.47;5003869;28;20069;-77
2022/08/08 12:36:16;;;;;;;3.55;1.38;;;;;;;23.20;50.67;69348.91;5002940;28;20497;-77
2022/08/08 12:38:53;;;;;;;3.42;1.20;;;;;;;23.25;51.37;69356.81;4999303;28;20069;-77
2022/08/08 12:41:23;;;;;;;3.60;1.17;;;;;;;23.18;50.87;69348.78;5005672;28;20141;-77